createdAt,value
2022-09-01T00:00:05.384Z,101874.16
2022-09-01T00:02:34.099Z,101875.53
2022-09-01T00:05:01.993Z,101871.98
2022-09-01T00:07:31.537Z,101871.06
2022-09-01T00:09:59.479Z,101876.11
2022-09-01T00:12:27.225Z,101871.33
2022-09-01T00:14:54.120Z,101870.08
2022-09-01T00:17:21.428Z,101873.98
2022-09-01T00:19:48.431Z,101874.67
2022-09-01T00:22:15.402Z,101875.52
2022-09-01T00:24:42.558Z,101873.00
2022-09-01T00:27:09.282Z,101872.45
2022-09-01T00:29:36.675Z,101874.02
2022-09-01T00:32:04.960Z,101875.05
2022-09-01T00:34:31.814Z,101878.26
2022-09-01T00:36:58.783Z,101873.64
2022-09-01T00:39:25.765Z,101869.21
2022-09-01T00:41:52.654Z,101870.27
2022-09-01T00:44:24.375Z,101870.60
2022-09-01T00:46:57.085Z,101869.34
2022-09-01T00:49:29.825Z,101869.70
2022-09-01T00:52:17.661Z,101868.10
2022-09-01T00:54:54.676Z,101866.34
2022-09-01T00:57:22.792Z,101865.94
2022-09-01T01:00:02.005Z,101867.86
2022-09-01T01:02:29.212Z,101868.02
2022-09-01T01:05:00.658Z,101861.83
2022-09-01T01:07:29.321Z,101860.74
2022-09-01T01:09:57.717Z,101861.84
2022-09-01T01:12:27.940Z,101853.64
2022-09-01T01:14:55.076Z,101856.77
2022-09-01T01:17:23.353Z,101855.92
2022-09-01T01:20:15.732Z,101856.25
2022-09-01T01:23:15.961Z,101855.71
2022-09-01T01:25:50.349Z,101856.91
2022-09-01T01:28:35.998Z,101863.25
2022-09-01T01:31:14.741Z,101861.27
2022-09-01T01:33:51.605Z,101862.14
2022-09-01T01:36:36.268Z,101860.39
2022-09-01T01:39:16.410Z,101865.31
2022-09-01T01:41:48.849Z,101860.44
2022-09-01T01:44:20.545Z,101856.77
2022-09-01T01:46:51.871Z,101859.39
2022-09-01T01:49:23.466Z,101860.09
2022-09-01T01:51:56.160Z,101857.26
2022-09-01T01:54:25.999Z,101856.37
2022-09-01T01:56:52.760Z,101858.65
2022-09-01T01:59:19.636Z,101853.70
2022-09-01T02:01:49.329Z,101858.25
2022-09-01T02:04:18.086Z,101858.00
2022-09-01T02:06:46.339Z,101858.52
2022-09-01T02:09:20.202Z,101855.18
2022-09-01T02:11:47.034Z,101854.39
2022-09-01T02:14:16.414Z,101853.27
2022-09-01T02:16:43.417Z,101854.50
2022-09-01T02:19:12.283Z,101850.92
2022-09-01T02:21:44.759Z,101851.94
2022-09-01T02:24:12.033Z,101852.85
2022-09-01T02:26:47.414Z,101852.78
2022-09-01T02:29:22.035Z,101850.42
2022-09-01T02:31:53.242Z,101853.71
2022-09-01T02:34:24.334Z,101850.73
2022-09-01T02:36:55.495Z,101850.91
2022-09-01T02:39:30.073Z,101846.33
2022-09-01T02:41:57.614Z,101847.73
2022-09-01T02:44:24.969Z,101843.45
2022-09-01T02:46:51.858Z,101846.61
2022-09-01T02:49:28.348Z,101842.34
2022-09-01T02:52:01.191Z,101839.77
2022-09-01T02:54:29.982Z,101844.23
2022-09-01T02:56:57.416Z,101843.54
2022-09-01T02:59:29.149Z,101840.86
2022-09-01T03:01:57.580Z,101842.55
2022-09-01T03:04:27.061Z,101841.98
2022-09-01T03:06:55.296Z,101847.83
2022-09-01T03:09:23.075Z,101841.95
2022-09-01T03:11:53.286Z,101846.27
2022-09-01T03:14:23.560Z,101842.44
2022-09-01T03:16:50.550Z,101842.27
2022-09-01T03:19:19.225Z,101843.60
2022-09-01T03:21:48.663Z,101847.80
2022-09-01T03:24:18.728Z,101841.77
2022-09-01T03:26:49.835Z,101843.63
2022-09-01T03:29:18.775Z,101841.59
2022-09-01T03:31:46.207Z,101840.27
2022-09-01T03:34:13.663Z,101836.60
2022-09-01T03:36:50.557Z,101840.91
2022-09-01T03:39:19.304Z,101841.85
2022-09-01T03:41:46.545Z,101839.13
2022-09-01T03:44:15.251Z,101838.98
2022-09-01T03:46:43.641Z,101840.58
2022-09-01T03:49:15.144Z,101841.31
2022-09-01T03:51:45.177Z,101844.01
2022-09-01T03:54:13.031Z,101843.34
2022-09-01T03:56:41.819Z,101845.89
2022-09-01T03:59:17.117Z,101842.27
2022-09-01T04:01:45.492Z,101843.03
2022-09-01T04:04:16.629Z,101839.58
2022-09-01T04:06:46.153Z,101841.33
2022-09-01T04:09:13.819Z,101840.02
2022-09-01T04:11:45.837Z,101838.95
2022-09-01T04:14:13.552Z,101838.88
2022-09-01T04:16:59.279Z,101839.70
2022-09-01T04:19:27.592Z,101839.23
2022-09-01T04:22:00.873Z,101843.45
2022-09-01T04:24:32.297Z,101845.57
2022-09-01T04:27:02.668Z,101842.70
2022-09-01T04:29:31.958Z,101842.80
2022-09-01T04:32:09.722Z,101843.52
2022-09-01T04:34:40.002Z,101844.44
2022-09-01T04:37:21.164Z,101845.64
2022-09-01T04:39:56.489Z,101845.80
2022-09-01T04:42:29.754Z,101844.86
2022-09-01T04:44:57.677Z,101850.77
2022-09-01T04:47:36.032Z,101844.39
2022-09-01T04:50:14.878Z,101845.63
2022-09-01T04:52:46.209Z,101845.48
2022-09-01T04:55:18.290Z,101846.44
2022-09-01T04:57:49.231Z,101853.05
2022-09-01T05:00:22.866Z,101851.24
2022-09-01T05:03:04.971Z,101849.29
2022-09-01T05:05:43.111Z,101851.90
2022-09-01T05:08:23.137Z,101850.18
2022-09-01T05:10:55.921Z,101844.20
2022-09-01T05:13:24.154Z,101847.14
2022-09-01T05:16:04.096Z,101846.63
2022-09-01T05:18:31.157Z,101847.71
2022-09-01T05:20:58.067Z,101846.30
2022-09-01T05:23:26.533Z,101846.71
2022-09-01T05:25:57.229Z,101845.97
2022-09-01T05:28:25.474Z,101846.90
2022-09-01T05:30:54.408Z,101851.41
2022-09-01T05:33:22.500Z,101849.33
2022-09-01T05:35:57.214Z,101852.55
2022-09-01T05:38:25.743Z,101856.41
2022-09-01T05:41:02.152Z,101854.34
2022-09-01T05:43:30.981Z,101851.95
2022-09-01T05:46:06.976Z,101850.37
2022-09-01T05:48:40.006Z,101853.40
2022-09-01T05:51:22.307Z,101856.17
2022-09-01T05:53:59.343Z,101859.92
2022-09-01T05:56:29.551Z,101858.86
2022-09-01T06:01:50.365Z,101851.68
2022-09-01T06:04:18.131Z,101851.70
2022-09-01T06:07:05.338Z,101853.17
2022-09-01T06:09:40.662Z,101848.13
2022-09-01T06:12:18.637Z,101853.52
2022-09-01T06:14:53.141Z,101857.16
2022-09-01T06:17:26.864Z,101856.17
2022-09-01T06:19:56.662Z,101856.80
2022-09-01T06:22:28.062Z,101859.27
2022-09-01T06:25:01.007Z,101864.98
2022-09-01T06:27:29.519Z,101866.34
2022-09-01T06:29:58.390Z,101868.75
2022-09-01T06:32:27.164Z,101868.76
2022-09-01T06:34:54.659Z,101867.52
2022-09-01T06:37:22.928Z,101866.64
2022-09-01T06:39:51.024Z,101867.42
2022-09-01T06:42:20.198Z,101870.04
2022-09-01T06:44:47.411Z,101867.41
2022-09-01T06:47:15.520Z,101863.38
2022-09-01T06:49:43.005Z,101867.58
2022-09-01T06:52:11.886Z,101868.93
2022-09-01T06:54:41.342Z,101870.48
2022-09-01T06:59:55.292Z,101863.27
2022-09-01T07:02:26.510Z,101865.38
2022-09-01T07:04:54.744Z,101859.61
2022-09-01T07:10:24.850Z,101860.31
2022-09-01T07:13:11.582Z,101864.65
2022-09-01T07:18:32.746Z,101865.95
2022-09-01T07:21:07.954Z,101868.85
2022-09-01T07:24:10.404Z,101866.42
2022-09-01T07:26:48.292Z,101865.86
2022-09-01T07:29:16.625Z,101867.31
2022-09-01T07:32:41.184Z,101865.43
2022-09-01T07:34:40.390Z,101860.75
2022-09-01T07:38:03.680Z,101863.77
2022-09-01T07:39:56.490Z,101860.71
2022-09-01T07:45:30.611Z,101866.24
2022-09-01T07:48:03.306Z,101859.66
2022-09-01T07:51:07.415Z,101853.58
2022-09-01T07:53:31.591Z,101852.31
2022-09-01T07:56:09.552Z,101853.20
2022-09-01T07:58:39.450Z,101849.16
2022-09-01T08:01:09.811Z,101853.67
2022-09-01T08:03:37.721Z,101859.20
2022-09-01T08:06:12.765Z,101864.52
2022-09-01T08:08:41.270Z,101862.08
2022-09-01T08:11:08.724Z,101864.67
2022-09-01T08:13:41.871Z,101863.00
2022-09-01T08:16:18.083Z,101865.73
2022-09-01T08:18:48.558Z,101864.15
2022-09-01T08:21:18.737Z,101865.36
2022-09-01T08:23:45.817Z,101866.52
2022-09-01T08:26:16.922Z,101864.05
2022-09-01T08:28:54.352Z,101862.85
2022-09-01T08:31:24.778Z,101864.13
2022-09-01T08:33:52.478Z,101864.15
2022-09-01T08:36:24.034Z,101863.82
2022-09-01T08:38:53.351Z,101863.77
2022-09-01T08:41:46.964Z,101858.02
2022-09-01T08:44:38.784Z,101855.10
2022-09-01T08:47:15.520Z,101855.80
2022-09-01T08:49:46.956Z,101856.48
2022-09-01T08:52:31.188Z,101858.04
2022-09-01T08:55:16.174Z,101858.94
2022-09-01T08:57:46.089Z,101861.27
2022-09-01T09:00:18.206Z,101858.89
2022-09-01T09:03:12.379Z,101855.67
2022-09-01T09:06:07.970Z,101849.65
2022-09-01T09:08:59.064Z,101852.46
2022-09-01T09:11:46.604Z,101854.35
2022-09-01T09:14:43.040Z,101855.75
2022-09-01T09:17:11.167Z,101844.52
2022-09-01T09:19:42.573Z,101848.52
2022-09-01T09:22:15.431Z,101856.87
2022-09-01T09:24:51.308Z,101853.35
2022-09-01T09:27:29.600Z,101855.64
2022-09-01T09:30:11.746Z,101856.16
2022-09-01T09:33:37.235Z,101851.83
2022-09-01T09:35:46.420Z,101847.02
2022-09-01T09:38:33.714Z,101843.39
2022-09-01T09:41:16.514Z,101840.55
2022-09-01T09:43:59.218Z,101838.59
2022-09-01T09:46:32.181Z,101835.35
2022-09-01T09:49:34.708Z,101836.42
2022-09-01T09:52:03.340Z,101835.48
2022-09-01T09:54:34.299Z,101836.45
2022-09-01T09:57:16.359Z,101833.04
2022-09-01T10:00:04.764Z,101825.27
2022-09-01T10:02:56.035Z,101829.40
2022-09-01T10:05:40.306Z,101829.63
2022-09-01T10:08:13.012Z,101827.20
2022-09-01T10:10:58.384Z,101829.41
2022-09-01T10:13:31.452Z,101828.79
2022-09-01T10:16:14.689Z,101830.48
2022-09-01T10:18:51.891Z,101835.47
2022-09-01T10:21:30.597Z,101828.02
2022-09-01T10:24:21.026Z,101829.13
2022-09-01T10:26:55.494Z,101822.04
2022-09-01T10:29:46.977Z,101815.80
2022-09-01T10:32:37.922Z,101822.72
2022-09-01T10:35:26.077Z,101818.18
2022-09-01T10:37:55.909Z,101819.82
2022-09-01T10:40:31.116Z,101818.24
2022-09-01T10:43:24.880Z,101815.27
2022-09-01T10:45:57.959Z,101816.19
2022-09-01T10:48:46.360Z,101818.37
2022-09-01T10:51:21.108Z,101817.72
2022-09-01T10:53:53.488Z,101816.21
2022-09-01T10:56:44.384Z,101816.48
2022-09-01T10:59:35.800Z,101818.29
2022-09-01T11:02:28.003Z,101812.66
2022-09-01T11:04:55.745Z,101815.01
2022-09-01T11:07:38.877Z,101817.78
2022-09-01T11:10:42.989Z,101817.62
2022-09-01T11:13:36.249Z,101813.78
2022-09-01T11:16:51.367Z,101807.02
2022-09-01T11:19:18.129Z,101806.48
2022-09-01T11:21:45.341Z,101804.82
2022-09-01T11:24:40.396Z,101804.66
2022-09-01T11:27:33.449Z,101800.11
2022-09-01T11:30:09.371Z,101802.19
2022-09-01T11:32:43.746Z,101801.77
2022-09-01T11:35:24.588Z,101799.55
2022-09-01T11:37:57.406Z,101803.39
2022-09-01T11:40:32.644Z,101795.23
2022-09-01T11:43:12.980Z,101800.70
2022-09-01T11:46:20.744Z,101806.25
2022-09-01T11:48:51.729Z,101803.52
2022-09-01T11:51:21.472Z,101806.64
2022-09-01T11:53:51.473Z,101801.95
2022-09-01T11:56:28.111Z,101807.27
2022-09-01T11:58:54.875Z,101804.15
2022-09-01T12:01:33.219Z,101806.54
2022-09-01T12:04:28.585Z,101806.48
2022-09-01T12:07:02.362Z,101806.14
2022-09-01T12:09:41.866Z,101808.36
2022-09-01T12:12:37.349Z,101809.44
2022-09-01T12:15:22.342Z,101808.85
2022-09-01T12:17:49.916Z,101805.30
2022-09-01T12:20:33.024Z,101805.14
2022-09-01T12:23:02.375Z,101804.81
2022-09-01T12:25:33.473Z,101800.59
2022-09-01T12:28:10.965Z,101798.34
2022-09-01T12:30:41.148Z,101796.20
2022-09-01T12:33:28.271Z,101791.27
2022-09-01T12:36:31.015Z,101789.55
2022-09-01T12:39:17.603Z,101792.75
2022-09-01T12:41:50.625Z,101787.08
2022-09-01T12:44:44.678Z,101787.29
2022-09-01T12:47:33.665Z,101789.61
2022-09-01T12:50:24.870Z,101787.17
2022-09-01T12:52:58.726Z,101791.11
2022-09-01T12:58:25.860Z,101784.86
2022-09-01T13:01:16.758Z,101785.30
2022-09-01T13:04:24.040Z,101780.81
2022-09-01T13:06:53.439Z,101778.67
2022-09-01T13:09:20.485Z,101780.58
2022-09-01T13:14:34.355Z,101772.97
2022-09-01T13:17:01.223Z,101772.42
2022-09-01T13:19:30.444Z,101766.33
2022-09-01T13:21:57.859Z,101768.70
2022-09-01T13:24:28.680Z,101759.68
2022-09-01T13:29:45.658Z,101762.66
2022-09-01T13:32:27.778Z,101760.52
2022-09-01T13:34:55.119Z,101761.41
2022-09-01T13:37:22.814Z,101760.63
2022-09-01T13:39:50.339Z,101755.17
2022-09-01T13:42:18.471Z,101756.23
2022-09-01T13:44:49.689Z,101755.64
2022-09-01T13:47:35.431Z,101755.65
2022-09-01T13:50:10.513Z,101752.01
2022-09-01T13:52:44.558Z,101749.03
2022-09-01T13:55:25.142Z,101748.75
2022-09-01T13:57:55.849Z,101751.54
2022-09-01T14:00:33.560Z,101746.69
2022-09-01T14:03:06.097Z,101741.90
2022-09-01T14:05:38.468Z,101740.63
2022-09-01T14:08:08.671Z,101740.70
2022-09-01T14:10:41.685Z,101737.20
2022-09-01T14:13:11.516Z,101734.84
2022-09-01T14:15:39.172Z,101728.36
2022-09-01T14:18:06.753Z,101731.91
2022-09-01T14:20:39.690Z,101732.80
2022-09-01T14:23:08.692Z,101734.27
2022-09-01T14:25:35.977Z,101733.69
2022-09-01T14:28:03.914Z,101727.06
2022-09-01T14:30:33.160Z,101721.29
2022-09-01T14:33:01.763Z,101720.88
2022-09-01T14:35:33.294Z,101721.05
2022-09-01T14:38:02.926Z,101720.14
2022-09-01T14:40:30.009Z,101720.21
2022-09-01T14:42:56.962Z,101711.96
2022-09-01T14:45:28.826Z,101712.19
2022-09-01T14:48:00.765Z,101711.10
2022-09-01T14:50:33.947Z,101706.85
2022-09-01T14:53:03.525Z,101710.64
2022-09-01T14:55:32.816Z,101705.49
2022-09-01T14:58:00.873Z,101705.17
2022-09-01T15:00:30.214Z,101702.52
2022-09-01T15:02:59.087Z,101704.02
2022-09-01T15:05:26.459Z,101704.81
2022-09-01T15:07:54.731Z,101700.39
2022-09-01T15:10:26.223Z,101698.11
2022-09-01T15:13:00.196Z,101695.39
2022-09-01T15:15:28.862Z,101695.15
2022-09-01T15:17:56.858Z,101696.57
2022-09-01T15:20:43.562Z,101694.02
2022-09-01T15:23:22.950Z,101692.23
2022-09-01T15:25:54.394Z,101688.60
2022-09-01T15:28:22.776Z,101690.51
2022-09-01T15:30:51.120Z,101687.79
2022-09-01T15:33:21.364Z,101689.42
2022-09-01T15:35:48.146Z,101690.83
2022-09-01T15:38:17.753Z,101689.11
2022-09-01T15:40:51.977Z,101690.71
2022-09-01T15:43:25.187Z,101685.09
2022-09-01T15:45:51.978Z,101684.65
2022-09-01T15:48:18.825Z,101681.72
2022-09-01T15:50:45.683Z,101681.90
2022-09-01T15:53:13.313Z,101672.55
2022-09-01T15:55:49.757Z,101674.45
2022-09-01T15:58:20.277Z,101674.05
2022-09-01T16:00:47.108Z,101682.89
2022-09-01T16:03:14.030Z,101684.71
2022-09-01T16:05:41.555Z,101685.71
2022-09-01T16:08:12.468Z,101688.43
2022-09-01T16:10:42.429Z,101685.77
2022-09-01T16:13:11.007Z,101685.60
2022-09-01T16:15:49.342Z,101682.79
2022-09-01T16:19:15.907Z,101685.67
2022-09-01T16:22:08.633Z,101685.48
2022-09-01T16:24:47.884Z,101683.92
2022-09-01T16:27:19.864Z,101681.66
2022-09-01T16:29:55.941Z,101686.33
2022-09-01T16:32:23.965Z,101684.31
2022-09-01T16:34:52.729Z,101683.73
2022-09-01T16:38:12.549Z,101685.02
2022-09-01T16:40:58.358Z,101681.73
2022-09-01T16:44:05.833Z,101686.45
2022-09-01T16:46:45.557Z,101682.27
2022-09-01T16:49:33.185Z,101681.02
2022-09-01T16:52:20.944Z,101683.56
2022-09-01T16:54:56.461Z,101684.68
2022-09-01T16:58:03.622Z,101683.66
2022-09-01T17:01:06.581Z,101684.95
2022-09-01T17:04:13.570Z,101688.16
2022-09-01T17:06:58.678Z,101686.04
2022-09-01T17:09:45.831Z,101689.84
2022-09-01T17:12:50.498Z,101692.00
2022-09-01T17:15:39.616Z,101689.32
2022-09-01T17:18:23.137Z,101693.61
2022-09-01T17:21:02.291Z,101692.40
2022-09-01T17:23:40.861Z,101693.48
2022-09-01T17:26:23.062Z,101696.67
2022-09-01T17:29:00.281Z,101697.61
2022-09-01T17:31:58.187Z,101698.02
2022-09-01T17:34:49.925Z,101703.72
2022-09-01T17:37:28.707Z,101710.14
2022-09-01T17:40:20.285Z,101709.96
2022-09-01T17:43:06.679Z,101712.11
2022-09-01T17:45:52.634Z,101715.69
2022-09-01T17:48:36.028Z,101716.41
2022-09-01T17:51:33.679Z,101721.23
2022-09-01T17:54:30.957Z,101720.53
2022-09-01T17:57:12.759Z,101722.67
2022-09-01T17:59:48.337Z,101727.98
2022-09-01T18:02:50.175Z,101730.98
2022-09-01T18:05:24.426Z,101729.75
2022-09-01T18:08:13.649Z,101735.23
2022-09-01T18:10:50.677Z,101737.70
2022-09-01T18:13:52.911Z,101738.77
2022-09-01T18:16:28.570Z,101737.17
2022-09-01T18:19:05.535Z,101741.09
2022-09-01T18:21:40.891Z,101741.08
2022-09-01T18:24:27.095Z,101741.60
2022-09-01T18:26:53.809Z,101746.83
2022-09-01T18:29:25.186Z,101743.62
2022-09-01T18:32:06.911Z,101743.65
2022-09-01T18:35:05.502Z,101747.23
2022-09-01T18:38:12.893Z,101754.86
2022-09-01T18:41:09.854Z,101759.10
2022-09-01T18:43:44.206Z,101761.38
2022-09-01T18:46:29.577Z,101763.11
2022-09-01T18:48:56.894Z,101762.48
2022-09-01T18:51:30.279Z,101769.77
2022-09-01T18:54:09.271Z,101767.62
2022-09-01T18:57:03.793Z,101769.02
2022-09-01T19:00:00.662Z,101766.50
2022-09-01T19:02:50.007Z,101770.23
2022-09-01T19:05:20.616Z,101772.67
2022-09-01T19:08:04.657Z,101771.04
2022-09-01T19:11:08.706Z,101774.23
2022-09-01T19:13:46.700Z,101772.73
2022-09-01T19:16:55.270Z,101771.78
2022-09-01T19:19:43.835Z,101777.91
2022-09-01T19:22:21.075Z,101775.41
2022-09-01T19:25:16.489Z,101777.52
2022-09-01T19:27:57.670Z,101782.59
2022-09-01T19:30:24.448Z,101785.83
2022-09-01T19:32:51.820Z,101785.28
2022-09-01T19:35:19.039Z,101782.54
2022-09-01T19:37:51.000Z,101780.73
2022-09-01T19:40:32.084Z,101785.80
2022-09-01T19:43:10.039Z,101789.08
2022-09-01T19:45:59.474Z,101786.07
2022-09-01T19:49:12.851Z,101790.96
2022-09-01T19:51:51.268Z,101794.45
2022-09-01T19:54:51.957Z,101796.23
2022-09-01T19:57:46.278Z,101793.20
2022-09-01T20:00:18.705Z,101795.88
2022-09-01T20:03:07.643Z,101797.55
2022-09-01T20:06:05.789Z,101797.25
2022-09-01T20:09:16.791Z,101801.92
2022-09-01T20:12:01.995Z,101804.39
2022-09-01T20:15:21.635Z,101804.48
2022-09-01T20:18:09.203Z,101800.68
2022-09-01T20:20:46.825Z,101803.52
2022-09-01T20:23:32.741Z,101800.52
2022-09-01T20:26:23.350Z,101801.45
2022-09-01T20:29:18.295Z,101803.36
2022-09-01T20:31:55.506Z,101803.73
2022-09-01T20:34:46.023Z,101801.88
2022-09-01T20:37:21.371Z,101803.95
2022-09-01T20:40:05.051Z,101802.98
2022-09-01T20:43:07.180Z,101802.89
2022-09-01T20:45:34.577Z,101807.90
2022-09-01T20:48:14.310Z,101804.88
2022-09-01T20:51:08.163Z,101801.77
2022-09-01T20:54:02.723Z,101801.20
2022-09-01T20:56:52.005Z,101804.77
2022-09-01T20:59:39.945Z,101802.77
2022-09-01T21:02:33.403Z,101804.73
2022-09-01T21:05:41.554Z,101806.56
2022-09-01T21:08:37.057Z,101801.55
2022-09-01T21:11:52.594Z,101802.97
2022-09-01T21:14:56.754Z,101807.10
2022-09-01T21:17:35.239Z,101802.98
2022-09-01T21:20:22.003Z,101807.98
2022-09-01T21:22:51.022Z,101807.98
2022-09-01T21:25:17.733Z,101807.40
2022-09-01T21:27:52.679Z,101810.51
2022-09-01T21:30:21.021Z,101815.13
2022-09-01T21:32:48.646Z,101817.57
2022-09-01T21:35:19.661Z,101812.93
2022-09-01T21:37:47.096Z,101808.98
2022-09-01T21:40:15.940Z,101808.64
2022-09-01T21:42:49.863Z,101810.09
2022-09-01T21:45:19.508Z,101809.07
2022-09-01T21:47:48.909Z,101815.84
2022-09-01T21:50:19.621Z,101813.34
2022-09-01T21:52:46.356Z,101814.94
2022-09-01T21:55:13.806Z,101812.14
2022-09-01T21:57:42.154Z,101814.52
2022-09-01T22:00:18.401Z,101813.65
2022-09-01T22:02:46.383Z,101810.49
2022-09-01T22:05:14.319Z,101810.84
2022-09-01T22:07:45.413Z,101810.34
2022-09-01T22:10:20.919Z,101807.15
2022-09-01T22:12:50.770Z,101805.34
2022-09-01T22:15:22.544Z,101801.62
2022-09-01T22:17:51.015Z,101801.23
2022-09-01T22:20:22.476Z,101800.13
2022-09-01T22:22:50.539Z,101800.55
2022-09-01T22:25:24.152Z,101798.45
2022-09-01T22:27:51.073Z,101796.77
2022-09-01T22:30:19.260Z,101798.11
2022-09-01T22:32:47.977Z,101797.08
2022-09-01T22:35:17.047Z,101795.53
2022-09-01T22:37:44.576Z,101792.32
2022-09-01T22:40:13.664Z,101797.33
2022-09-01T22:42:40.466Z,101795.52
2022-09-01T22:45:09.778Z,101795.87
2022-09-01T22:47:38.623Z,101793.27
2022-09-01T22:50:08.995Z,101795.98
2022-09-01T22:52:37.095Z,101797.34
2022-09-01T22:55:06.264Z,101797.15
2022-09-01T22:57:33.614Z,101793.48
2022-09-01T23:00:01.012Z,101796.38
2022-09-01T23:02:28.399Z,101794.08
2022-09-01T23:04:55.236Z,101794.79
2022-09-01T23:07:22.020Z,101793.67
2022-09-01T23:09:48.745Z,101798.67
2022-09-01T23:12:17.360Z,101796.14
2022-09-01T23:14:44.096Z,101794.91
2022-09-01T23:17:11.247Z,101794.19
2022-09-01T23:19:38.158Z,101791.07
2022-09-01T23:22:05.030Z,101789.73
2022-09-01T23:24:31.741Z,101790.98
2022-09-01T23:26:58.546Z,101787.92
2022-09-01T23:29:25.525Z,101787.74
2022-09-01T23:31:52.609Z,101788.25
2022-09-01T23:34:19.586Z,101787.11
2022-09-01T23:36:46.742Z,101787.51
2022-09-01T23:39:14.416Z,101782.67
2022-09-01T23:41:42.063Z,101784.41
2022-09-01T23:44:12.090Z,101777.08
2022-09-01T23:46:45.028Z,101779.38
2022-09-01T23:49:15.545Z,101778.20
2022-09-01T23:51:43.859Z,101775.61
2022-09-01T23:54:11.938Z,101779.98
2022-09-01T23:56:40.047Z,101777.73
2022-09-01T23:59:08.393Z,101781.17
